Time;durP1;ratioP1;P1;durP2;ratioP2;P2;SDS_P1;SDS_P2;PMS_P1;PMS_P2;Temp;Humidity;BMP_temperature;BMP_pressure;BME280_temperature;BME280_humidity;BME280_pressure;Samples;Min_cycle;Max_cycle;Signal;HPM_P1;HPM_P2
2022/04/02 00:00:06;;;;;;;6.77;2.83;;;;;;;;;;10474596;28;20041;-76
2022/04/02 00:05:09;;;;;;;7.90;3.67;;;;;;;;;;10461192;28;20036;-76
2022/04/02 00:10:12;;;;;;;1.73;1.25;;;;;;;;;;10488886;28;20032;-75
2022/04/02 00:15:24;;;;;;;5.83;2.57;;;;;;;;;;10466148;28;20043;-74
2022/04/02 00:20:28;;;;;;;3.00;1.30;;;;;;;;;;10469135;28;20291;-75
2022/04/02 00:25:31;;;;;;;3.50;1.97;;;;;;;;;;10449145;28;20106;-76
2022/04/02 00:30:35;;;;;;;1.10;0.60;;;;;;;;;;10494220;28;20405;-74
2022/04/02 00:35:37;;;;;;;;;;;;;;;;;;10476117;28;20068;-76
2022/04/02 00:40:42;;;;;;;1.37;0.83;;;;;;;;;;10477212;28;19950;-74
2022/04/02 00:45:46;;;;;;;2.43;1.53;;;;;;;;;;10467890;28;20045;-75
2022/04/02 00:50:53;;;;;;;1.80;1.20;;;;;;;;;;10497464;28;20035;-75
2022/04/02 00:55:55;;;;;;;2.07;0.73;;;;;;;;;;10485280;28;20098;-74
2022/04/02 01:01:00;;;;;;;1.83;1.00;;;;;;;;;;10472358;28;20145;-77
2022/04/02 01:06:03;;;;;;;1.80;1.20;;;;;;;;;;10483621;28;20047;-77
2022/04/02 01:11:08;;;;;;;3.35;1.45;;;;;;;;;;10490359;28;20040;-76
2022/04/02 01:16:12;;;;;;;2.40;1.80;;;;;;;;;;10466949;28;20118;-75
2022/04/02 01:21:15;;;;;;;3.10;1.60;;;;;;;;;;10504651;28;20176;-75
2022/04/02 01:26:20;;;;;;;5.47;2.47;;;;;;;;;;10477367;28;20044;-76
2022/04/02 01:31:24;;;;;;;6.17;2.37;;;;;;;;;;10489249;28;20033;-75
2022/04/02 01:36:27;;;;;;;9.37;4.33;;;;;;;;;;10464742;28;20049;-74
2022/04/02 01:41:31;;;;;;;12.30;5.33;;;;;;;;;;10482032;28;20048;-76
2022/04/02 01:46:34;;;;;;;8.93;4.70;;;;;;;;;;10484006;28;20060;-74
2022/04/02 01:51:38;;;;;;;;;;;;;;;;;;10485921;28;20037;-75
2022/04/02 01:56:43;;;;;;;16.97;7.73;;;;;;;;;;10483315;28;19920;-75
2022/04/02 02:01:46;;;;;;;15.93;6.70;;;;;;;;;;10494336;22;20450;-74
2022/04/02 02:06:49;;;;;;;12.70;5.70;;;;;;;;;;10550954;27;20464;-76
2022/04/02 02:11:54;;;;;;;2.43;1.60;;;;;;;;;;10548977;27;20487;-74
2022/04/02 02:16:56;;;;;;;;;;;;;;;;;;10540694;28;20040;-76
2022/04/02 02:21:59;;;;;;;3.27;2.20;;;;;;;;;;10527967;27;19927;-75
2022/04/02 02:27:04;;;;;;;4.13;2.10;;;;;;;;;;10548188;27;20035;-75
2022/04/02 02:32:07;;;;;;;10.10;4.13;;;;;;;;;;10544950;27;20032;-75
2022/04/02 02:37:10;;;;;;;10.18;4.75;;;;;;;;;;10545600;28;20083;-76
2022/04/02 02:42:14;;;;;;;7.77;3.43;;;;;;;;;;10556123;27;20027;-75
2022/04/02 02:47:17;;;;;;;9.30;3.83;;;;;;;;;;10546768;28;20040;-74
2022/04/02 02:52:21;;;;;;;4.93;2.58;;;;;;;;;;10585092;27;20439;-75
2022/04/02 02:57:26;;;;;;;8.25;2.38;;;;;;;;;;10560552;27;20762;-75
2022/04/02 03:02:29;;;;;;;10.43;4.47;;;;;;;;;;10536536;28;20023;-75
2022/04/02 03:07:35;;;;;;;4.40;1.70;;;;;;;;;;10555461;27;20346;-76
2022/04/02 03:12:40;;;;;;;18.63;7.40;;;;;;;;;;10543257;28;20038;-75
2022/04/02 03:17:43;;;;;;;;;;;;;;;;;;10558176;28;21840;-75
2022/04/02 03:22:48;;;;;;;7.23;3.13;;;;;;;;;;10538875;27;19945;-75
2022/04/02 03:27:53;;;;;;;14.63;6.03;;;;;;;;;;10552096;27;20035;-74
2022/04/02 03:32:57;;;;;;;7.93;3.90;;;;;;;;;;10542584;27;20039;-76
2022/04/02 03:38:00;;;;;;;12.73;5.50;;;;;;;;;;10537347;28;20769;-75
2022/04/02 03:43:04;;;;;;;15.27;6.53;;;;;;;;;;10565852;28;20034;-73
2022/04/02 03:48:08;;;;;;;11.67;4.80;;;;;;;;;;10538836;28;20109;-73
2022/04/02 03:53:11;;;;;;;14.30;5.20;;;;;;;;;;10550564;28;20056;-72
2022/04/02 03:58:16;;;;;;;13.38;5.95;;;;;;;;;;10539336;28;20047;-74
2022/04/02 04:03:19;;;;;;;10.40;5.40;;;;;;;;;;10541052;28;20039;-74
2022/04/02 04:08:22;;;;;;;14.63;5.88;;;;;;;;;;10557302;28;20097;-74
2022/04/02 04:13:27;;;;;;;8.67;3.87;;;;;;;;;;10551408;28;20557;-74
2022/04/02 04:18:31;;;;;;;11.30;5.30;;;;;;;;;;10558059;27;20047;-75
2022/04/02 04:23:35;;;;;;;13.07;5.83;;;;;;;;;;10554243;27;20036;-74
2022/04/02 04:28:40;;;;;;;13.07;5.68;;;;;;;;;;10563818;27;20391;-75
2022/04/02 04:33:43;;;;;;;4.13;2.33;;;;;;;;;;10546638;27;20488;-75
2022/04/02 04:38:48;;;;;;;5.55;2.17;;;;;;;;;;10545497;27;20068;-75
2022/04/02 04:43:52;;;;;;;16.00;6.50;;;;;;;;;;10547740;27;20031;-75
2022/04/02 04:48:55;;;;;;;9.23;4.20;;;;;;;;;;10544858;27;20040;-74
2022/04/02 04:53:58;;;;;;;13.67;6.07;;;;;;;;;;10462872;22;20049;-74
2022/04/02 04:59:09;;;;;;;10.93;4.97;;;;;;;;;;10436807;28;20041;-75
2022/04/02 05:04:13;;;;;;;14.97;5.97;;;;;;;;;;10460328;23;20427;-72
2022/04/02 05:09:16;;;;;;;2.60;1.73;;;;;;;;;;10509130;28;20127;-76
2022/04/02 05:14:21;;;;;;;17.60;6.88;;;;;;;;;;10505669;28;20131;-74
2022/04/02 05:19:24;;;;;;;11.63;5.27;;;;;;;;;;10532103;28;20053;-75
2022/04/02 05:24:28;;;;;;;10.68;5.25;;;;;;;;;;10500913;28;20036;-75
2022/04/02 05:29:33;;;;;;;14.97;5.03;;;;;;;;;;10522578;28;20040;-74
2022/04/02 05:34:35;;;;;;;;;;;;;;;;;;10506392;28;20044;-76
2022/04/02 05:39:38;;;;;;;6.17;3.50;;;;;;;;;;10505739;28;20367;-76
2022/04/02 05:44:42;;;;;;;13.10;4.83;;;;;;;;;;10499125;28;20051;-73
2022/04/02 05:49:47;;;;;;;7.70;3.37;;;;;;;;;;10520150;28;20319;-76
2022/04/02 05:54:50;;;;;;;15.13;5.77;;;;;;;;;;10496824;28;20086;-73
2022/04/02 05:59:54;;;;;;;16.77;6.73;;;;;;;;;;10525200;28;20035;-73
2022/04/02 06:04:57;;;;;;;;;;;;;;;;;;10519493;28;20408;-74
2022/04/02 06:10:02;;;;;;;12.00;4.90;;;;;;;;;;10503382;28;20002;-74
2022/04/02 06:15:09;;;;;;;17.30;4.70;;;;;;;;;;10502667;28;20439;-73
2022/04/02 06:20:13;;;;;;;21.60;6.63;;;;;;;;;;10516714;28;20033;-71
2022/04/02 06:25:17;;;;;;;15.47;4.47;;;;;;;;;;10522963;28;20048;-72
2022/04/02 06:30:22;;;;;;;13.13;5.97;;;;;;;;;;10505559;28;20058;-74
2022/04/02 06:35:29;;;;;;;14.70;5.33;;;;;;;;;;10503492;28;20067;-75
2022/04/02 06:40:33;;;;;;;17.02;6.88;;;;;;;;;;10515506;28;20543;-74
2022/04/02 06:45:37;;;;;;;12.57;5.00;;;;;;;;;;10503593;28;20420;-73
2022/04/02 06:50:42;;;;;;;16.57;7.33;;;;;;;;;;10501898;28;20047;-71
2022/04/02 06:55:47;;;;;;;18.60;6.67;;;;;;;;;;10535532;27;20051;-73
2022/04/02 07:00:51;;;;;;;7.10;2.33;;;;;;;;;;10507303;28;20129;-74
2022/04/02 07:05:54;;;;;;;12.83;4.00;;;;;;;;;;10521934;28;20027;-73
2022/04/02 07:10:57;;;;;;;18.23;7.10;;;;;;;;;;10503564;28;20035;-73
2022/04/02 07:16:02;;;;;;;17.20;5.17;;;;;;;;;;10518104;28;20138;-74
2022/04/02 07:21:05;;;;;;;18.70;5.77;;;;;;;;;;10505574;28;20124;-74
2022/04/02 07:26:09;;;;;;;7.37;3.87;;;;;;;;;;10502710;28;20040;-74
2022/04/02 07:31:14;;;;;;;15.13;6.20;;;;;;;;;;10520753;28;20046;-73
2022/04/02 07:36:17;;;;;;;;;;;;;;;;;;10500856;28;20036;-72
2022/04/02 07:41:22;;;;;;;8.93;3.90;;;;;;;;;;10496699;28;19920;-71
2022/04/02 07:46:28;;;;;;;18.23;7.17;;;;;;;;;;10509222;28;20475;-75
2022/04/02 07:51:31;;;;;;;20.73;7.23;;;;;;;;;;10498740;28;20093;-75
2022/04/02 07:56:36;;;;;;;16.37;4.87;;;;;;;;;;10504674;28;20040;-75
2022/04/02 08:01:41;;;;;;;13.57;5.53;;;;;;;;;;10512880;28;20468;-73
2022/04/02 08:06:44;;;;;;;14.77;5.23;;;;;;;;;;10511131;28;20040;-74
2022/04/02 08:11:48;;;;;;;20.23;6.90;;;;;;;;;;10520448;28;20058;-75
2022/04/02 08:16:53;;;;;;;18.95;6.28;;;;;;;;;;10543285;28;20534;-73
2022/04/02 08:21:55;;;;;;;;;;;;;;;;;;10528718;28;20127;-75
2022/04/02 08:27:01;;;;;;;13.00;6.07;;;;;;;;;;10509985;28;20035;-73
2022/04/02 08:32:15;;;;;;;14.50;5.63;;;;;;;;;;10537551;28;20103;-74
2022/04/02 08:37:21;;;;;;;5.90;1.67;;;;;;;;;;10528919;28;20028;-73
2022/04/02 08:42:45;;;;;;;16.80;6.70;;;;;;;;;;10516945;28;20033;-75
2022/04/02 08:48:04;;;;;;;11.93;4.77;;;;;;;;;;10509898;28;20059;-74
2022/04/02 08:53:17;;;;;;;13.73;5.73;;;;;;;;;;10501928;28;20036;-73
2022/04/02 08:58:34;;;;;;;15.03;6.40;;;;;;;;;;10503313;28;20048;-70
2022/04/02 09:03:56;;;;;;;10.40;5.00;;;;;;;;;;10486241;28;20036;-72
2022/04/02 09:09:06;;;;;;;2.45;1.25;;;;;;;;;;10508890;28;20036;-75
2022/04/02 09:14:34;;;;;;;11.15;4.75;;;;;;;;;;10504937;28;20051;-75
2022/04/02 09:19:50;;;;;;;14.05;5.68;;;;;;;;;;10535723;27;20044;-73
2022/04/02 09:25:21;;;;;;;13.35;5.93;;;;;;;;;;10529539;28;20039;-75
2022/04/02 09:30:32;;;;;;;5.80;2.75;;;;;;;;;;10513422;28;20063;-73
2022/04/02 09:36:01;;;;;;;4.68;2.75;;;;;;;;;;10518899;28;20036;-74
2022/04/02 09:41:10;;;;;;;6.78;3.58;;;;;;;;;;10527506;28;20149;-70
2022/04/02 09:46:24;;;;;;;11.73;5.00;;;;;;;;;;10521903;28;20028;-73
2022/04/02 09:51:31;;;;;;;14.77;6.10;;;;;;;;;;10533745;27;20131;-74
2022/04/02 09:56:35;;;;;;;12.83;4.27;;;;;;;;;;10521653;28;20436;-75
2022/04/02 10:01:48;;;;;;;6.10;2.78;;;;;;;;;;10506832;28;20032;-75
2022/04/02 10:06:56;;;;;;;2.83;1.33;;;;;;;;;;10521814;28;20113;-74
2022/04/02 10:12:00;;;;;;;5.10;3.33;;;;;;;;;;10515125;28;20137;-72
2022/04/02 10:17:03;;;;;;;;;;;;;;;;;;10525327;28;20035;-73
2022/04/02 10:22:09;;;;;;;5.37;3.00;;;;;;;;;;10527705;27;19973;-74
2022/04/02 10:27:13;;;;;;;16.38;6.35;;;;;;;;;;10500625;28;20127;-74
2022/04/02 10:32:26;;;;;;;12.57;5.27;;;;;;;;;;10518081;28;20441;-74
2022/04/02 10:37:33;;;;;;;16.13;6.87;;;;;;;;;;10506104;28;20047;-74
2022/04/02 10:42:38;;;;;;;14.10;6.97;;;;;;;;;;10523175;28;20050;-73
2022/04/02 10:47:43;;;;;;;27.77;11.20;;;;;;;;;;10496327;28;20043;-73
2022/04/02 10:52:48;;;;;;;10.73;4.28;;;;;;;;;;10521104;28;20509;-73
2022/04/02 10:57:56;;;;;;;8.73;3.83;;;;;;;;;;10515396;28;20063;-74
2022/04/02 11:03:02;;;;;;;6.97;2.60;;;;;;;;;;10493714;28;20125;-74
2022/04/02 11:08:12;;;;;;;18.67;7.50;;;;;;;;;;10504135;28;20780;-74
2022/04/02 11:13:27;;;;;;;16.45;6.60;;;;;;;;;;10521672;28;20047;-73
2022/04/02 11:18:31;;;;;;;16.75;5.03;;;;;;;;;;10532362;27;20080;-73
2022/04/02 11:23:46;;;;;;;6.53;2.97;;;;;;;;;;10543957;27;20135;-73
2022/04/02 11:28:52;;;;;;;12.48;5.80;;;;;;;;;;10509164;28;20048;-73
2022/04/02 11:33:58;;;;;;;9.60;2.58;;;;;;;;;;10504374;28;20123;-74
2022/04/02 11:39:04;;;;;;;4.82;2.33;;;;;;;;;;10509429;28;20392;-73
2022/04/02 11:44:08;;;;;;;3.45;2.33;;;;;;;;;;10522532;28;20051;-76
2022/04/02 11:49:11;;;;;;;5.82;3.35;;;;;;;;;;10526545;28;20127;-76
2022/04/02 11:54:15;;;;;;;7.13;3.78;;;;;;;;;;10529445;28;20038;-75
2022/04/02 11:59:18;;;;;;;;;;;;;;;;;;10522689;28;20036;-74
2022/04/02 12:04:22;;;;;;;14.13;6.88;;;;;;;;;;10504970;28;20010;-75
2022/04/02 12:09:27;;;;;;;16.52;6.55;;;;;;;;;;10499034;28;20132;-74
2022/04/02 12:14:32;;;;;;;11.80;5.90;;;;;;;;;;10491216;28;20528;-74
2022/04/02 12:19:40;;;;;;;9.90;5.80;;;;;;;;;;10503685;28;20695;-74
2022/04/02 12:24:47;;;;;;;5.00;2.58;;;;;;;;;;10516992;28;20036;-76
2022/04/02 12:29:51;;;;;;;24.50;5.18;;;;;;;;;;10507778;28;20036;-74
2022/04/02 12:34:57;;;;;;;2.95;1.85;;;;;;;;;;10505905;28;20051;-74
2022/04/02 12:40:14;;;;;;;4.90;1.20;;;;;;;;;;10532514;28;20098;-75
2022/04/02 12:45:18;;;;;;;9.18;5.07;;;;;;;;;;10511686;28;20048;-74
2022/04/02 12:50:21;;;;;;;;;;;;;;;;;;10534269;28;20055;-75
2022/04/02 12:55:26;;;;;;;8.02;3.60;;;;;;;;;;10530333;28;19920;-74
2022/04/02 13:00:30;;;;;;;5.25;3.35;;;;;;;;;;10529475;28;20064;-74
2022/04/02 13:05:45;;;;;;;4.80;2.33;;;;;;;;;;10532747;28;20036;-74
2022/04/02 13:10:50;;;;;;;7.93;3.88;;;;;;;;;;10517090;28;20096;-75
2022/04/02 13:15:53;;;;;;;7.32;3.63;;;;;;;;;;10506143;28;20376;-75
2022/04/02 13:20:58;;;;;;;7.80;3.67;;;;;;;;;;10511101;28;20051;-75
2022/04/02 13:26:04;;;;;;;11.23;5.97;;;;;;;;;;10529296;28;20487;-75
2022/04/02 13:31:08;;;;;;;12.65;6.15;;;;;;;;;;10512559;28;20046;-76
2022/04/02 13:36:20;;;;;;;4.43;2.33;;;;;;;;;;10524700;28;20063;-77
2022/04/02 13:41:26;;;;;;;9.60;5.00;;;;;;;;;;10523285;28;20063;-74
2022/04/02 13:46:30;;;;;;;5.77;2.77;;;;;;;;;;10516175;28;20035;-75
2022/04/02 13:51:41;;;;;;;5.83;2.87;;;;;;;;;;10509020;28;20058;-74
2022/04/02 13:56:54;;;;;;;8.65;3.83;;;;;;;;;;10521459;28;20036;-75
2022/04/02 14:01:58;;;;;;;11.95;6.13;;;;;;;;;;10510133;28;20143;-74
2022/04/02 14:07:03;;;;;;;4.13;1.98;;;;;;;;;;10536797;27;20039;-74
2022/04/02 14:12:09;;;;;;;2.93;1.93;;;;;;;;;;10533311;27;20496;-76
2022/04/02 14:17:15;;;;;;;2.30;1.60;;;;;;;;;;10523829;28;20040;-74
2022/04/02 14:22:20;;;;;;;7.67;4.07;;;;;;;;;;10502794;28;20051;-73
2022/04/02 14:27:33;;;;;;;3.73;2.27;;;;;;;;;;10529501;28;20066;-74
2022/04/02 14:33:09;;;;;;;11.70;4.50;;;;;;;;;;10502896;28;20097;-74
2022/04/02 14:38:31;;;;;;;4.43;3.07;;;;;;;;;;10334829;28;20483;-73
2022/04/02 14:43:53;;;;;;;2.95;1.52;;;;;;;;;;10480638;28;20488;-73
2022/04/02 14:49:22;;;;;;;2.57;1.53;;;;;;;;;;10499497;28;20127;-74
2022/04/02 14:54:56;;;;;;;1.50;1.23;;;;;;;;;;10519140;28;20036;-72
2022/04/02 15:00:22;;;;;;;1.13;1.00;;;;;;;;;;10501387;28;20040;-74
2022/04/02 15:05:34;;;;;;;1.85;1.40;;;;;;;;;;10518159;28;20040;-74
2022/04/02 15:10:37;;;;;;;4.03;2.47;;;;;;;;;;10518789;28;20472;-75
2022/04/02 15:15:41;;;;;;;4.23;1.93;;;;;;;;;;10501784;28;20059;-73
2022/04/02 15:20:45;;;;;;;3.08;1.75;;;;;;;;;;10521389;28;20293;-73
2022/04/02 15:25:51;;;;;;;4.07;1.80;;;;;;;;;;10511475;28;20048;-75
2022/04/02 15:30:55;;;;;;;19.17;6.23;;;;;;;;;;10523868;28;20464;-76
2022/04/02 15:36:00;;;;;;;1.83;1.50;;;;;;;;;;10519526;28;20055;-75
2022/04/02 15:41:23;;;;;;;6.23;2.97;;;;;;;;;;10528617;28;20044;-74
2022/04/02 15:46:28;;;;;;;1.43;1.13;;;;;;;;;;10505329;28;20379;-75
2022/04/02 15:51:33;;;;;;;1.80;1.33;;;;;;;;;;10522228;28;20079;-75
2022/04/02 15:56:50;;;;;;;2.47;1.97;;;;;;;;;;10512282;28;20058;-74
2022/04/02 16:01:54;;;;;;;8.20;3.00;;;;;;;;;;10515093;28;20126;-74
2022/04/02 16:07:22;;;;;;;6.70;3.50;;;;;;;;;;10511628;28;20035;-73
2022/04/02 16:12:35;;;;;;;1.40;1.17;;;;;;;;;;10508687;28;20165;-72
2022/04/02 16:17:38;;;;;;;7.40;4.30;;;;;;;;;;10513856;28;20036;-74
2022/04/02 16:22:45;;;;;;;5.40;2.37;;;;;;;;;;10512530;28;20116;-74
2022/04/02 16:27:48;;;;;;;6.37;3.20;;;;;;;;;;10499132;28;20513;-74
2022/04/02 16:32:51;;;;;;;4.43;2.47;;;;;;;;;;10517798;28;20054;-74
2022/04/02 16:38:05;;;;;;;6.10;2.80;;;;;;;;;;10535185;27;20047;-74
2022/04/02 16:43:10;;;;;;;1.47;1.20;;;;;;;;;;10511175;28;20140;-75
2022/04/02 16:48:14;;;;;;;8.77;4.10;;;;;;;;;;10524757;28;20059;-74
2022/04/02 16:53:25;;;;;;;3.70;1.65;;;;;;;;;;10510665;28;20049;-74
2022/04/02 16:58:29;;;;;;;3.27;2.00;;;;;;;;;;10540906;27;20048;-74
2022/04/02 17:03:32;;;;;;;7.53;2.97;;;;;;;;;;10524553;28;20039;-73
2022/04/02 17:08:37;;;;;;;11.05;4.05;;;;;;;;;;10513256;28;20032;-75
2022/04/02 17:13:39;;;;;;;11.85;6.15;;;;;;;;;;10504085;28;20032;-72
2022/04/02 17:18:43;;;;;;;32.13;9.13;;;;;;;;;;10536428;28;20142;-74
2022/04/02 17:23:47;;;;;;;10.48;4.03;;;;;;;;;;10531080;28;20039;-74
2022/04/02 17:28:50;;;;;;;1.90;1.40;;;;;;;;;;10529944;28;20040;-73
2022/04/02 17:33:53;;;;;;;3.55;1.90;;;;;;;;;;10522168;28;20114;-76
2022/04/02 17:39:01;;;;;;;6.60;2.10;;;;;;;;;;10524367;28;20067;-72
2022/04/02 17:44:19;;;;;;;5.97;3.10;;;;;;;;;;10518698;28;20102;-75
2022/04/02 17:49:28;;;;;;;0.90;0.60;;;;;;;;;;10524133;28;20040;-75
2022/04/02 17:54:45;;;;;;;4.90;1.80;;;;;;;;;;10531409;28;20044;-74
2022/04/02 17:59:49;;;;;;;3.60;1.67;;;;;;;;;;10506426;28;20466;-75
2022/04/02 18:04:54;;;;;;;1.30;1.10;;;;;;;;;;10525598;28;20121;-73
2022/04/02 18:10:02;;;;;;;7.07;3.73;;;;;;;;;;10508880;28;20046;-73
2022/04/02 18:15:07;;;;;;;2.55;1.80;;;;;;;;;;10495094;28;20084;-74
2022/04/02 18:20:11;;;;;;;4.53;2.27;;;;;;;;;;10500422;28;20036;-74
2022/04/02 18:25:16;;;;;;;3.00;1.40;;;;;;;;;;10543880;27;20055;-73
2022/04/02 18:30:19;;;;;;;3.77;2.33;;;;;;;;;;10524880;28;20089;-74
2022/04/02 18:35:22;;;;;;;0.77;0.73;;;;;;;;;;10528070;28;20463;-73
2022/04/02 18:40:26;;;;;;;2.37;1.97;;;;;;;;;;10521550;28;20036;-74
2022/04/02 18:45:29;;;;;;;;;;;;;;;;;;10506554;28;20556;-73
2022/04/02 18:50:32;;;;;;;5.40;1.93;;;;;;;;;;10544505;27;20351;-74
2022/04/02 18:55:36;;;;;;;6.43;3.13;;;;;;;;;;10530584;28;20032;-75
2022/04/02 19:00:40;;;;;;;4.87;2.47;;;;;;;;;;10514110;28;20280;-74
2022/04/02 19:05:43;;;;;;;;;;;;;;;;;;10510139;28;20097;-74
2022/04/02 19:10:52;;;;;;;0.10;0.10;;;;;;;;;;10505384;28;19973;-74
2022/04/02 19:15:55;;;;;;;13.37;5.80;;;;;;;;;;10523299;28;20116;-74
2022/04/02 19:20:59;;;;;;;3.70;1.40;;;;;;;;;;10499504;28;20050;-75
2022/04/02 19:26:03;;;;;;;11.80;4.60;;;;;;;;;;10515679;28;20483;-74
2022/04/02 19:31:07;;;;;;;6.47;3.63;;;;;;;;;;10510730;28;20104;-75
2022/04/02 19:36:11;;;;;;;5.35;2.33;;;;;;;;;;10513380;28;20365;-74
2022/04/02 19:41:15;;;;;;;8.80;4.80;;;;;;;;;;10531487;28;20077;-73
2022/04/02 19:46:19;;;;;;;2.23;1.50;;;;;;;;;;10518588;28;20032;-74
2022/04/02 19:51:23;;;;;;;11.67;5.40;;;;;;;;;;10529135;28;20142;-75
2022/04/02 19:56:28;;;;;;;15.88;6.50;;;;;;;;;;10517466;28;20043;-74
2022/04/02 20:01:32;;;;;;;1.13;1.03;;;;;;;;;;10518071;28;20488;-74
2022/04/02 20:06:35;;;;;;;7.60;4.20;;;;;;;;;;10453124;22;20052;-77
2022/04/02 20:11:40;;;;;;;3.03;1.43;;;;;;;;;;10392730;28;20154;-75
2022/04/02 20:16:43;;;;;;;9.63;3.60;;;;;;;;;;10402474;28;20036;-76
2022/04/02 20:21:47;;;;;;;9.98;3.50;;;;;;;;;;10427342;28;20044;-75
2022/04/02 20:26:51;;;;;;;8.03;3.57;;;;;;;;;;10390573;28;20029;-76
2022/04/02 20:31:54;;;;;;;;;;;;;;;;;;10397592;28;20468;-73
2022/04/02 20:36:56;;;;;;;;;;;;;;;;;;10400161;28;19921;-76
2022/04/02 20:41:59;;;;;;;;;;;;;;;;;;10392296;28;19933;-75
2022/04/02 20:47:02;;;;;;;;;;;;;;;;;;10382731;28;19931;-75
2022/04/02 20:52:04;;;;;;;;;;;;;;;;;;10395707;28;20020;-72
2022/04/02 20:57:08;;;;;;;;;;;;;;;;;;10404892;28;19936;-73
2022/04/02 21:02:12;;;;;;;;;;;;;;;;;;10401819;28;19921;-76
2022/04/02 21:07:14;;;;;;;;;;;;;;;;;;10478510;28;19920;-74
2022/04/02 21:12:17;;;;;;;;;;;;;;;;;;10472953;28;20180;-72
2022/04/02 21:17:20;;;;;;;;;;;;;;;;;;10472319;28;19924;-74
2022/04/02 21:22:23;;;;;;;;;;;;;;;;;;10494753;28;20446;-75
2022/04/02 21:27:29;;;;;;;;;;;;;;;;;;10479009;28;19920;-73
2022/04/02 21:32:32;;;;;;;;;;;;;;;;;;10493676;28;20022;-74
2022/04/02 21:37:35;;;;;;;;;;;;;;;;;;10481284;28;20046;-73
2022/04/02 21:42:38;;;;;;;;;;;;;;;;;;10490129;28;21732;-73
2022/04/02 21:47:40;;;;;;;;;;;;;;;;;;10458216;28;19920;-72
2022/04/02 21:52:43;;;;;;;;;;;;;;;;;;10460118;28;19927;-74
2022/04/02 21:57:45;;;;;;;;;;;;;;;;;;10459240;28;19964;-74
2022/04/02 22:02:49;;;;;;;;;;;;;;;;;;10460718;28;20438;-74
2022/04/02 22:07:52;;;;;;;;;;;;;;;;;;10478156;28;20011;-73
2022/04/02 22:12:56;;;;;;;;;;;;;;;;;;10481500;28;19920;-74
2022/04/02 22:17:58;;;;;;;;;;;;;;;;;;10485169;28;20380;-74
2022/04/02 22:23:01;;;;;;;;;;;;;;;;;;10477306;28;19920;-74
2022/04/02 22:28:03;;;;;;;;;;;;;;;;;;10479842;28;19928;-73
2022/04/02 22:33:06;;;;;;;;;;;;;;;;;;10459904;28;20026;-72
2022/04/02 22:38:10;;;;;;;;;;;;;;;;;;10486147;28;20524;-72
2022/04/02 22:43:13;;;;;;;;;;;;;;;;;;10477863;28;19920;-72
2022/04/02 22:48:16;;;;;;;;;;;;;;;;;;10463815;28;19928;-73
2022/04/02 22:53:19;;;;;;;;;;;;;;;;;;10460259;28;19927;-72
2022/04/02 22:58:21;;;;;;;;;;;;;;;;;;10474433;28;19929;-73
2022/04/02 23:03:24;;;;;;;;;;;;;;;;;;10481760;28;19927;-74
2022/04/02 23:08:27;;;;;;;;;;;;;;;;;;10465465;28;19928;-73
2022/04/02 23:13:29;;;;;;;;;;;;;;;;;;10462549;28;19920;-74
2022/04/02 23:18:32;;;;;;;;;;;;;;;;;;10478286;28;19924;-73
2022/04/02 23:23:35;;;;;;;;;;;;;;;;;;10480037;28;19928;-74
2022/04/02 23:28:38;;;;;;;;;;;;;;;;;;10462384;28;19974;-73
2022/04/02 23:33:41;;;;;;;;;;;;;;;;;;10465434;28;20504;-73
2022/04/02 23:38:44;;;;;;;;;;;;;;;;;;10477653;28;19928;-73
2022/04/02 23:43:47;;;;;;;;;;;;;;;;;;10477517;28;19928;-73
2022/04/02 23:48:50;;;;;;;;;;;;;;;;;;10459278;28;19947;-72
2022/04/02 23:53:52;;;;;;;;;;;;;;;;;;10461369;28;19924;-72
2022/04/02 23:58:56;;;;;;;;;;;;;;;;;;10461065;28;20369;-74
